This is the latest recevied weather packets stored in our database for station/object OE-11053. If no packets are shown the sender has not sent any weather packets the latest 10 day(s).
| Time | Temp. | Humidity | Pressure | Rain* | Wind** | Luminosity | Snow |
|---|---|---|---|---|---|---|---|
| 1788003323 | 21.67° C | 56% | 1016.7 hPa | 0 mm | - | 550 W/m² | - |
| 1788002723 | 22.22° C | 55% | 1016.7 hPa | 0 mm | - | 678 W/m² | - |
| 1788001896 | 22.22° C | 57% | 1016.7 hPa | 0 mm | - | 793 W/m² | - |
| 1788001522 | 21.67° C | 55% | 1016.9 hPa | 0 mm | - | 812 W/m² | - |
| 1788000923 | 21.67° C | 58% | 1016.9 hPa | 0 mm | - | 652 W/m² | - |
| 1788000096 | 21.67° C | 56% | 1017.1 hPa | 0 mm | - | 652 W/m² | - |
| 1787999723 | 21.67° C | 56% | 1017.1 hPa | 0 mm | - | 614 W/m² | - |
| 1787999123 | 21.67° C | 58% | 1017 hPa | 0 mm | - | 786 W/m² | - |
| 1787998296 | 21.11° C | 61% | 1017.1 hPa | 0 mm | - | 428 W/m² | - |
| 1787997922 | 21.67° C | 59% | 1017.3 hPa | 0 mm | - | 748 W/m² | - |
| 1787997323 | 21.67° C | 61% | 1017.2 hPa | 0 mm | - | 729 W/m² | - |
| 1787996496 | 21.11° C | 63% | 1017.3 hPa | 0 mm | - | 710 W/m² | - |
| 1787996123 | 20.56° C | 64% | 1017.5 hPa | 0 mm | - | 697 W/m² | - |
| 1787995523 | 20.56° C | 62% | 1017.5 hPa | 0 mm | - | 684 W/m² | - |
| 1787994696 | 20.56° C | 64% | 1017.6 hPa | 0 mm | - | 665 W/m² | - |
| 1787994323 | 20° C | 64% | 1017.8 hPa | 0 mm | - | 556 W/m² | - |
| 1787993723 | 20.56° C | 64% | 1017.8 hPa | 0 mm | - | 601 W/m² | - |
| 1787992895 | 20° C | 64% | 1017.7 hPa | 0 mm | - | 601 W/m² | - |
| 1787992522 | 20° C | 65% | 1017.7 hPa | 0 mm | - | 582 W/m² | - |
| 1787991922 | 20° C | 66% | 1017.8 hPa | 0 mm | - | 556 W/m² | - |
| 1787991096 | 20° C | 64% | 1017.5 hPa | 0 mm | - | 531 W/m² | - |
| 1787990722 | 19.44° C | 67% | 1017.7 hPa | 0 mm | - | 505 W/m² | - |
| 1787990123 | 19.44° C | 68% | 1017.6 hPa | 0 mm | - | 480 W/m² | - |
| 1787989295 | 19.44° C | 68% | 1017.5 hPa | 0 mm | - | 454 W/m² | - |
| 1787988322 | 18.33° C | 73% | 1017.8 hPa | 0 mm | - | 396 W/m² | - |
* Rain latest hour (hover to see other rain measurements)
** Current wind speed in m/s (hover to see current wind gust speed)